Time;durP1;ratioP1;P1;durP2;ratioP2;P2;SDS_P1;SDS_P2;PMS_P1;PMS_P2;Temp;Humidity;BMP_temperature;BMP_pressure;BME280_temperature;BME280_humidity;BME280_pressure;Samples;Min_cycle;Max_cycle;Signal;HPM_P1;HPM_P2
2023/10/29 00:00:23;;;;;;;1.60;1.17;;;;;;;;;;5009155;28;20288;-61
2023/10/29 00:02:50;;;;;;;1.53;1.30;;;;;;;;;;5010439;28;20685;-63
2023/10/29 00:05:18;;;;;;;2.47;1.00;;;;;;;;;;5010604;28;20209;-64
2023/10/29 00:07:45;;;;;;;3.20;1.47;;;;;;;;;;5004588;28;20209;-63
2023/10/29 00:10:12;;;;;;;1.00;1.00;;;;;;;;;;5001525;28;20202;-63
2023/10/29 00:12:39;;;;;;;1.20;1.10;;;;;;;;;;5009177;28;20692;-63
2023/10/29 00:15:07;;;;;;;2.53;1.37;;;;;;;;;;5010249;28;20209;-63
2023/10/29 00:17:35;;;;;;;2.20;1.20;;;;;;;;;;5009480;28;20608;-63
2023/10/29 00:20:06;;;;;;;1.30;1.20;;;;;;;;;;5008768;28;20751;-63
2023/10/29 00:22:33;;;;;;;2.63;1.17;;;;;;;;;;5000028;28;20308;-63
2023/10/29 00:25:00;;;;;;;1.13;1.10;;;;;;;;;;4991124;28;20224;-63
2023/10/29 00:27:27;;;;;;;0.90;0.90;;;;;;;;;;5009175;28;20216;-61
2023/10/29 00:29:54;;;;;;;1.20;1.00;;;;;;;;;;5009704;28;20205;-60
2023/10/29 00:32:21;;;;;;;1.23;1.07;;;;;;;;;;5009518;28;20205;-60
2023/10/29 00:34:49;;;;;;;1.60;1.00;;;;;;;;;;5010127;28;20201;-61
2023/10/29 00:37:17;;;;;;;2.90;1.10;;;;;;;;;;5009873;28;20209;-61
2023/10/29 00:39:44;;;;;;;2.03;1.00;;;;;;;;;;5009741;28;20240;-61
2023/10/29 00:42:12;;;;;;;2.17;1.10;;;;;;;;;;5002766;28;20205;-61
2023/10/29 00:44:39;;;;;;;0.90;0.87;;;;;;;;;;5009567;28;20599;-60
2023/10/29 00:47:06;;;;;;;1.57;1.00;;;;;;;;;;5009200;28;20201;-63
2023/10/29 00:49:34;;;;;;;1.17;0.83;;;;;;;;;;5009074;28;20285;-63
2023/10/29 00:52:02;;;;;;;2.00;0.97;;;;;;;;;;5009656;28;20197;-63
2023/10/29 00:54:29;;;;;;;0.93;0.87;;;;;;;;;;5009701;28;20205;-63
2023/10/29 00:56:57;;;;;;;1.90;1.03;;;;;;;;;;5009796;28;20201;-60
2023/10/29 00:59:24;;;;;;;1.50;0.97;;;;;;;;;;5009268;28;20228;-61
2023/10/29 01:01:51;;;;;;;1.47;0.87;;;;;;;;;;5008810;28;20414;-61
2023/10/29 01:04:18;;;;;;;1.10;1.10;;;;;;;;;;5006540;28;20233;-61
2023/10/29 01:06:47;;;;;;;1.10;1.10;;;;;;;;;;5007770;28;20248;-61
2023/10/29 01:09:16;;;;;;;0.90;0.90;;;;;;;;;;5009385;28;20477;-61
2023/10/29 01:11:43;;;;;;;2.03;0.90;;;;;;;;;;5005385;28;20205;-60
2023/10/29 01:14:10;;;;;;;0.97;0.90;;;;;;;;;;5009195;28;20205;-60
2023/10/29 01:16:38;;;;;;;2.87;1.00;;;;;;;;;;5008684;28;20395;-61
2023/10/29 01:19:05;;;;;;;3.28;0.82;;;;;;;;;;5008690;28;20259;-63
2023/10/29 01:21:32;;;;;;;1.87;1.00;;;;;;;;;;5007129;28;20201;-62
2023/10/29 01:24:00;;;;;;;0.93;0.87;;;;;;;;;;4994496;28;20495;-62
2023/10/29 01:26:29;;;;;;;1.73;1.17;;;;;;;;;;4997959;28;20209;-62
2023/10/29 01:28:56;;;;;;;0.80;0.80;;;;;;;;;;5009166;28;20205;-63
2023/10/29 01:31:23;;;;;;;2.17;0.80;;;;;;;;;;5008798;28;20203;-62
2023/10/29 01:33:50;;;;;;;1.73;1.15;;;;;;;;;;5008592;28;20209;-62
2023/10/29 01:36:17;;;;;;;1.60;0.77;;;;;;;;;;5009145;28;20201;-62
2023/10/29 01:38:44;;;;;;;3.05;1.08;;;;;;;;;;5008921;28;20205;-62
2023/10/29 01:41:17;;;;;;;0.80;0.80;;;;;;;;;;5008037;28;20598;-62
2023/10/29 01:43:46;;;;;;;1.00;1.00;;;;;;;;;;5008177;28;20696;-62
2023/10/29 01:46:13;;;;;;;1.10;0.90;;;;;;;;;;5006872;28;20700;-62
2023/10/29 01:48:43;;;;;;;2.10;0.97;;;;;;;;;;5008913;28;20215;-65
2023/10/29 01:51:10;;;;;;;1.40;1.03;;;;;;;;;;5008407;28;20209;-64
2023/10/29 01:53:37;;;;;;;2.38;1.20;;;;;;;;;;5008913;28;20677;-64
2023/10/29 01:56:08;;;;;;;1.07;1.07;;;;;;;;;;5008696;28;20204;-65
2023/10/29 01:58:35;;;;;;;0.90;0.90;;;;;;;;;;5007538;28;20213;-64
2023/10/29 02:01:09;;;;;;;1.00;1.00;;;;;;;;;;5008406;28;20205;-66
2023/10/29 02:03:36;;;;;;;6.70;0.90;;;;;;;;;;5008247;28;20236;-65
2023/10/29 02:06:03;;;;;;;3.50;1.07;;;;;;;;;;5006924;28;20757;-65
2023/10/29 02:08:30;;;;;;;2.17;1.17;;;;;;;;;;5008008;28;20217;-65
2023/10/29 02:10:57;;;;;;;3.43;0.87;;;;;;;;;;5008281;28;20209;-65
2023/10/29 02:13:24;;;;;;;0.73;0.73;;;;;;;;;;5007966;28;20205;-65
2023/10/29 02:15:52;;;;;;;1.80;1.00;;;;;;;;;;5007941;28;20204;-65
2023/10/29 02:18:20;;;;;;;1.00;1.00;;;;;;;;;;5007743;28;20213;-65
2023/10/29 02:20:47;;;;;;;3.90;1.00;;;;;;;;;;5007917;28;20216;-65
2023/10/29 02:23:15;;;;;;;1.30;0.83;;;;;;;;;;5007879;28;20255;-65
2023/10/29 02:25:42;;;;;;;0.90;0.90;;;;;;;;;;5008227;28;20281;-65
2023/10/29 02:28:09;;;;;;;2.60;0.88;;;;;;;;;;5008465;28;20220;-65
2023/10/29 02:30:36;;;;;;;0.80;0.80;;;;;;;;;;5007297;28;20209;-65
2023/10/29 02:33:04;;;;;;;0.70;0.70;;;;;;;;;;5007840;28;20296;-65
2023/10/29 02:35:31;;;;;;;2.10;1.17;;;;;;;;;;5008435;28;20201;-65
2023/10/29 02:37:58;;;;;;;0.83;0.80;;;;;;;;;;5007959;28;20216;-65
2023/10/29 02:40:26;;;;;;;0.90;0.90;;;;;;;;;;5007521;28;20209;-65
2023/10/29 02:42:53;;;;;;;1.03;0.93;;;;;;;;;;5008035;28;20200;-65
2023/10/29 02:45:20;;;;;;;1.88;1.77;;;;;;;;;;5007209;28;20248;-65
2023/10/29 02:47:47;;;;;;;0.73;0.70;;;;;;;;;;5007762;28;20219;-66
2023/10/29 02:50:14;;;;;;;3.37;0.90;;;;;;;;;;5007718;28;20212;-64
2023/10/29 02:52:41;;;;;;;1.17;1.00;;;;;;;;;;5007633;28;20209;-62
2023/10/29 02:55:09;;;;;;;1.13;1.00;;;;;;;;;;5006907;28;20611;-62
2023/10/29 02:57:37;;;;;;;0.82;0.82;;;;;;;;;;5007527;28;20212;-63
2023/10/29 03:00:05;;;;;;;1.20;1.10;;;;;;;;;;5006720;28;20202;-62
2023/10/29 03:02:32;;;;;;;1.00;0.90;;;;;;;;;;5006388;28;20209;-63
2023/10/29 03:04:59;;;;;;;4.97;1.07;;;;;;;;;;5007128;28;20233;-62
2023/10/29 03:07:26;;;;;;;1.20;1.08;;;;;;;;;;5006675;28;20236;-63
2023/10/29 03:09:53;;;;;;;1.33;1.00;;;;;;;;;;4998261;28;20204;-63
2023/10/29 03:12:20;;;;;;;1.00;1.00;;;;;;;;;;5009368;28;20209;-63
2023/10/29 03:14:49;;;;;;;1.35;1.17;;;;;;;;;;5010516;28;20700;-63
2023/10/29 03:17:16;;;;;;;1.50;1.20;;;;;;;;;;5007350;28;20566;-62
2023/10/29 03:19:44;;;;;;;1.90;1.00;;;;;;;;;;5010627;28;20208;-63
2023/10/29 03:22:11;;;;;;;1.23;1.20;;;;;;;;;;5006789;28;20201;-62
2023/10/29 03:24:39;;;;;;;0.87;0.87;;;;;;;;;;5010769;28;20251;-63
2023/10/29 03:27:06;;;;;;;1.03;1.00;;;;;;;;;;5010581;28;20205;-63
2023/10/29 03:29:33;;;;;;;1.20;1.02;;;;;;;;;;5010895;28;20205;-63
2023/10/29 03:32:03;;;;;;;0.73;0.70;;;;;;;;;;5010569;28;20232;-62
2023/10/29 03:34:31;;;;;;;1.10;1.10;;;;;;;;;;5010277;28;20208;-63
2023/10/29 03:36:58;;;;;;;6.13;1.23;;;;;;;;;;5010188;28;20575;-62
2023/10/29 03:39:26;;;;;;;1.30;0.83;;;;;;;;;;5010482;28;20345;-62
2023/10/29 03:41:53;;;;;;;1.15;0.80;;;;;;;;;;5010362;28;20672;-62
2023/10/29 03:44:20;;;;;;;0.85;0.82;;;;;;;;;;5010088;28;20678;-63
2023/10/29 03:46:51;;;;;;;4.10;0.80;;;;;;;;;;5009869;28;20216;-62
2023/10/29 03:49:19;;;;;;;1.40;1.30;;;;;;;;;;4991491;28;20360;-63
2023/10/29 03:51:46;;;;;;;1.33;1.30;;;;;;;;;;5005437;28;20216;-61
2023/10/29 03:54:13;;;;;;;1.10;1.10;;;;;;;;;;5009751;28;20213;-61
2023/10/29 03:56:41;;;;;;;1.10;1.00;;;;;;;;;;5010070;28;20209;-60
2023/10/29 03:59:08;;;;;;;1.65;0.95;;;;;;;;;;5009595;28;20673;-60
2023/10/29 04:01:35;;;;;;;2.00;1.20;;;;;;;;;;5009999;28;20243;-60
2023/10/29 04:04:03;;;;;;;1.27;1.13;;;;;;;;;;5004644;28;20221;-61
2023/10/29 04:06:32;;;;;;;1.70;1.13;;;;;;;;;;5008607;28;20249;-61
2023/10/29 04:08:59;;;;;;;1.98;1.38;;;;;;;;;;5008519;28;20681;-60
2023/10/29 04:11:26;;;;;;;1.08;1.08;;;;;;;;;;5007862;28;20209;-60
2023/10/29 04:13:53;;;;;;;0.90;0.90;;;;;;;;;;5007916;28;20918;-60
2023/10/29 04:16:20;;;;;;;1.80;1.30;;;;;;;;;;5008372;28;20216;-60
2023/10/29 04:18:47;;;;;;;4.63;1.00;;;;;;;;;;5007934;28;20205;-60
2023/10/29 04:21:14;;;;;;;1.33;1.23;;;;;;;;;;5008325;28;20209;-60
2023/10/29 04:23:43;;;;;;;5.17;1.20;;;;;;;;;;5008098;28;20197;-60
2023/10/29 04:26:10;;;;;;;2.93;1.10;;;;;;;;;;5008604;28;20213;-61
2023/10/29 04:28:37;;;;;;;1.20;1.20;;;;;;;;;;5008656;28;20205;-60
2023/10/29 04:31:04;;;;;;;0.93;0.93;;;;;;;;;;5008470;28;20205;-60
2023/10/29 04:33:32;;;;;;;1.30;0.90;;;;;;;;;;5008785;28;20615;-61
2023/10/29 04:35:59;;;;;;;1.70;1.00;;;;;;;;;;5008664;28;20209;-60
2023/10/29 04:38:26;;;;;;;1.90;0.90;;;;;;;;;;5008730;28;20722;-61
2023/10/29 04:40:55;;;;;;;0.87;0.87;;;;;;;;;;5007890;28;20887;-60
2023/10/29 04:43:22;;;;;;;2.90;0.80;;;;;;;;;;5008166;28;20205;-60
2023/10/29 04:45:49;;;;;;;6.50;0.77;;;;;;;;;;5008574;28;20229;-60
2023/10/29 04:48:17;;;;;;;2.73;1.10;;;;;;;;;;5008363;28;20205;-61
2023/10/29 04:50:44;;;;;;;1.00;1.00;;;;;;;;;;5006893;28;20209;-61
2023/10/29 04:53:11;;;;;;;1.00;1.00;;;;;;;;;;5008418;28;20209;-61
2023/10/29 04:55:38;;;;;;;2.10;0.87;;;;;;;;;;5007969;28;20569;-61
2023/10/29 04:58:06;;;;;;;1.03;1.00;;;;;;;;;;5008548;28;20201;-60
2023/10/29 05:00:33;;;;;;;0.90;0.90;;;;;;;;;;5007065;28;20212;-61
2023/10/29 05:03:00;;;;;;;2.63;0.80;;;;;;;;;;5007280;28;20205;-61
2023/10/29 05:05:27;;;;;;;0.80;0.80;;;;;;;;;;4972778;28;1027239;-60
2023/10/29 05:07:54;;;;;;;4.20;1.00;;;;;;;;;;5009208;28;20977;-61
2023/10/29 05:10:24;;;;;;;1.70;0.93;;;;;;;;;;5008802;28;20208;-61
2023/10/29 05:12:52;;;;;;;0.90;0.90;;;;;;;;;;5000270;28;20209;-61
2023/10/29 05:15:20;;;;;;;1.80;1.00;;;;;;;;;;5008860;28;20255;-60
2023/10/29 05:17:47;;;;;;;0.90;0.90;;;;;;;;;;5008584;28;20201;-61
2023/10/29 05:20:15;;;;;;;1.13;1.13;;;;;;;;;;5008916;28;20220;-60
2023/10/29 05:22:42;;;;;;;2.50;1.30;;;;;;;;;;5008179;28;20237;-60
2023/10/29 05:25:09;;;;;;;2.37;1.07;;;;;;;;;;5008459;28;20645;-60
2023/10/29 05:27:36;;;;;;;1.03;1.03;;;;;;;;;;5009022;28;20844;-61
2023/10/29 05:30:04;;;;;;;1.90;1.27;;;;;;;;;;5008644;28;20212;-60
2023/10/29 05:32:33;;;;;;;3.97;1.37;;;;;;;;;;5007627;28;20202;-61
2023/10/29 05:35:00;;;;;;;2.13;0.97;;;;;;;;;;5000721;28;20202;-60
2023/10/29 05:37:27;;;;;;;1.60;1.00;;;;;;;;;;5009100;28;20255;-61
2023/10/29 05:39:54;;;;;;;4.73;1.33;;;;;;;;;;5008105;28;20205;-60
2023/10/29 05:42:21;;;;;;;0.93;0.93;;;;;;;;;;5008195;28;20205;-61
2023/10/29 05:44:48;;;;;;;1.20;1.10;;;;;;;;;;5008355;28;20236;-60
2023/10/29 05:47:15;;;;;;;1.10;1.03;;;;;;;;;;5007810;28;20227;-60
2023/10/29 05:49:44;;;;;;;2.10;1.00;;;;;;;;;;5005387;28;20209;-60
2023/10/29 05:52:11;;;;;;;1.20;1.10;;;;;;;;;;5008642;28;20212;-63
2023/10/29 05:54:38;;;;;;;0.93;0.93;;;;;;;;;;5007182;28;20236;-61
2023/10/29 05:57:05;;;;;;;2.00;1.30;;;;;;;;;;5008638;28;20310;-63
2023/10/29 05:59:32;;;;;;;2.57;1.20;;;;;;;;;;5008697;28;20201;-60
2023/10/29 06:01:59;;;;;;;1.30;1.20;;;;;;;;;;5008091;28;20237;-60
2023/10/29 06:04:27;;;;;;;3.10;1.20;;;;;;;;;;5007466;28;20221;-60
2023/10/29 06:06:55;;;;;;;1.17;1.03;;;;;;;;;;5007810;28;20600;-60
2023/10/29 06:09:22;;;;;;;3.63;1.30;;;;;;;;;;5007919;28;20220;-60
2023/10/29 06:11:49;;;;;;;1.60;1.20;;;;;;;;;;5004927;28;20216;-60
2023/10/29 06:14:17;;;;;;;1.73;1.67;;;;;;;;;;5007641;28;20204;-59
2023/10/29 06:16:44;;;;;;;1.40;1.40;;;;;;;;;;5007671;28;20233;-60
2023/10/29 06:19:11;;;;;;;1.43;1.30;;;;;;;;;;5007700;28;20229;-60
2023/10/29 06:21:38;;;;;;;3.30;1.17;;;;;;;;;;5007717;28;20201;-60
2023/10/29 06:24:07;;;;;;;1.30;1.30;;;;;;;;;;5007609;28;20236;-59
2023/10/29 06:26:34;;;;;;;1.87;1.47;;;;;;;;;;5002159;28;20197;-61
2023/10/29 06:29:01;;;;;;;3.40;1.07;;;;;;;;;;5007915;28;20617;-61
2023/10/29 06:31:29;;;;;;;2.43;1.00;;;;;;;;;;5007460;28;20208;-60
2023/10/29 06:33:56;;;;;;;1.27;1.17;;;;;;;;;;5007739;28;20873;-62
2023/10/29 06:36:23;;;;;;;2.30;1.20;;;;;;;;;;5007849;28;20212;-60
2023/10/29 06:38:50;;;;;;;1.00;1.00;;;;;;;;;;5007766;28;20221;-58
2023/10/29 06:41:18;;;;;;;2.30;1.30;;;;;;;;;;5005359;28;20216;-59
2023/10/29 06:43:52;;;;;;;1.10;1.10;;;;;;;;;;5003513;28;20579;-59
2023/10/29 06:46:19;;;;;;;3.43;1.33;;;;;;;;;;5005005;28;20254;-59
2023/10/29 06:48:46;;;;;;;2.60;1.30;;;;;;;;;;5007387;28;20267;-59
2023/10/29 06:51:14;;;;;;;1.43;1.43;;;;;;;;;;5007286;28;20209;-58
2023/10/29 06:53:41;;;;;;;1.33;1.33;;;;;;;;;;5007687;28;20212;-59
2023/10/29 06:56:08;;;;;;;1.13;1.13;;;;;;;;;;5007469;28;20205;-59
2023/10/29 06:58:38;;;;;;;1.23;1.10;;;;;;;;;;5006888;28;20209;-59
2023/10/29 07:01:05;;;;;;;1.23;1.13;;;;;;;;;;5005494;28;20219;-59
2023/10/29 07:03:33;;;;;;;1.23;1.10;;;;;;;;;;5006600;28;20201;-59
2023/10/29 07:06:07;;;;;;;3.17;0.90;;;;;;;;;;5006310;28;20233;-59
2023/10/29 07:08:34;;;;;;;1.00;1.00;;;;;;;;;;5006486;28;20567;-60
2023/10/29 07:11:01;;;;;;;1.17;1.00;;;;;;;;;;5006911;28;20799;-60
2023/10/29 07:13:29;;;;;;;1.17;1.00;;;;;;;;;;5006224;28;20255;-60
2023/10/29 07:15:57;;;;;;;1.00;1.00;;;;;;;;;;5005614;28;20220;-60
2023/10/29 07:18:24;;;;;;;0.70;0.70;;;;;;;;;;5006147;28;20207;-60
2023/10/29 07:20:53;;;;;;;2.10;0.87;;;;;;;;;;5006983;28;20209;-58
2023/10/29 07:23:20;;;;;;;2.93;1.00;;;;;;;;;;5006441;28;20244;-58
2023/10/29 07:25:47;;;;;;;1.33;0.93;;;;;;;;;;5006001;28;20225;-58
2023/10/29 07:28:15;;;;;;;3.57;1.10;;;;;;;;;;5006800;28;20209;-59
2023/10/29 07:30:42;;;;;;;1.33;0.93;;;;;;;;;;5006095;28;20804;-60
2023/10/29 07:33:10;;;;;;;1.40;1.40;;;;;;;;;;5006778;28;20706;-60
2023/10/29 07:35:37;;;;;;;3.43;1.53;;;;;;;;;;5006447;28;20207;-59
2023/10/29 07:38:05;;;;;;;1.23;0.97;;;;;;;;;;5006748;28;20221;-58
2023/10/29 07:40:32;;;;;;;1.83;1.20;;;;;;;;;;5006221;28;20717;-58
2023/10/29 07:42:59;;;;;;;1.20;1.20;;;;;;;;;;5006440;28;20677;-58
2023/10/29 07:45:26;;;;;;;1.07;1.00;;;;;;;;;;5006510;28;20233;-59
2023/10/29 07:47:53;;;;;;;1.57;1.00;;;;;;;;;;5006711;28;20669;-59
2023/10/29 07:50:22;;;;;;;0.70;0.70;;;;;;;;;;5006844;28;20641;-60
2023/10/29 07:52:49;;;;;;;2.53;1.00;;;;;;;;;;5006653;28;20209;-60
2023/10/29 07:55:16;;;;;;;1.63;1.00;;;;;;;;;;5006082;28;20206;-60
2023/10/29 07:57:43;;;;;;;0.87;0.87;;;;;;;;;;5008030;28;20943;-59
2023/10/29 08:00:10;;;;;;;0.90;0.90;;;;;;;;;;5010076;28;20220;-59
2023/10/29 08:02:38;;;;;;;1.10;1.00;;;;;;;;;;5010127;28;20201;-59
2023/10/29 08:05:05;;;;;;;1.30;1.20;;;;;;;;;;5007589;28;20251;-58
2023/10/29 08:07:34;;;;;;;1.10;1.10;;;;;;;;;;5009867;28;20237;-59
2023/10/29 08:10:01;;;;;;;1.00;1.00;;;;;;;;;;5009984;28;20210;-59
2023/10/29 08:12:29;;;;;;;3.03;1.20;;;;;;;;;;5008034;28;20581;-59
2023/10/29 08:14:57;;;;;;;1.33;1.30;;;;;;;;;;5009444;28;20270;-60
2023/10/29 08:17:25;;;;;;;1.30;1.20;;;;;;;;;;5009483;28;20212;-59
2023/10/29 08:19:52;;;;;;;1.20;1.17;;;;;;;;;;5008522;28;20220;-59
2023/10/29 08:22:19;;;;;;;1.10;1.10;;;;;;;;;;5008726;28;20208;-60
2023/10/29 08:24:47;;;;;;;2.30;0.80;;;;;;;;;;5009599;28;20692;-59
2023/10/29 08:27:14;;;;;;;1.88;1.77;;;;;;;;;;5009197;28;20208;-60
2023/10/29 08:29:43;;;;;;;2.90;2.27;;;;;;;;;;5008563;28;20205;-60
2023/10/29 08:32:10;;;;;;;19.48;10.48;;;;;;;;;;5000263;28;20685;-59
2023/10/29 08:34:37;;;;;;;4.63;4.20;;;;;;;;;;5009410;28;20237;-59
2023/10/29 08:37:04;;;;;;;2.08;1.98;;;;;;;;;;5009112;28;20943;-59
2023/10/29 08:39:31;;;;;;;6.53;1.95;;;;;;;;;;5009429;28;20732;-60
2023/10/29 08:42:02;;;;;;;1.73;1.63;;;;;;;;;;5009115;28;20665;-59
2023/10/29 08:44:29;;;;;;;1.02;1.02;;;;;;;;;;5008535;28;20205;-60
2023/10/29 08:46:56;;;;;;;7.13;4.80;;;;;;;;;;5008759;28;20236;-60
2023/10/29 08:49:23;;;;;;;8.40;4.57;;;;;;;;;;5009171;28;20208;-59
2023/10/29 08:51:50;;;;;;;41.38;18.80;;;;;;;;;;5009312;28;20217;-60
2023/10/29 08:54:17;;;;;;;10.30;6.93;;;;;;;;;;5009082;28;20295;-59
2023/10/29 08:56:44;;;;;;;4.90;4.13;;;;;;;;;;5009502;28;20201;-63
2023/10/29 08:59:13;;;;;;;2.70;2.13;;;;;;;;;;5008448;28;20235;-62
2023/10/29 09:01:40;;;;;;;3.03;1.88;;;;;;;;;;5008922;28;20332;-60
2023/10/29 09:04:08;;;;;;;4.18;1.40;;;;;;;;;;5008642;28;20209;-62
2023/10/29 09:06:37;;;;;;;2.40;1.40;;;;;;;;;;5007979;28;20241;-62
2023/10/29 09:09:05;;;;;;;1.83;1.70;;;;;;;;;;5007525;28;20210;-62
2023/10/29 09:11:32;;;;;;;1.13;1.13;;;;;;;;;;5008851;28;20225;-61
2023/10/29 09:14:01;;;;;;;0.88;0.88;;;;;;;;;;5008783;28;20209;-61
2023/10/29 09:16:29;;;;;;;2.83;1.10;;;;;;;;;;5008794;28;20201;-62
2023/10/29 09:18:56;;;;;;;1.50;1.40;;;;;;;;;;5008736;28;20209;-61
2023/10/29 09:21:23;;;;;;;1.20;1.02;;;;;;;;;;5008701;28;20216;-61
2023/10/29 09:23:50;;;;;;;1.20;1.20;;;;;;;;;;5007766;28;20216;-63
2023/10/29 09:26:17;;;;;;;1.25;1.15;;;;;;;;;;5002225;28;20616;-60
2023/10/29 09:28:44;;;;;;;1.27;1.17;;;;;;;;;;5006247;28;20224;-60
2023/10/29 09:31:16;;;;;;;2.28;1.33;;;;;;;;;;5007579;28;20209;-60
2023/10/29 09:33:44;;;;;;;2.38;1.10;;;;;;;;;;5006996;28;20248;-60
2023/10/29 09:36:13;;;;;;;1.90;1.15;;;;;;;;;;5008317;28;20201;-60
2023/10/29 09:38:40;;;;;;;3.60;1.13;;;;;;;;;;4998612;28;20670;-60
2023/10/29 09:41:08;;;;;;;2.38;1.10;;;;;;;;;;5007178;28;20213;-58
2023/10/29 09:43:39;;;;;;;1.98;1.60;;;;;;;;;;5006719;28;20209;-58
2023/10/29 09:46:07;;;;;;;1.52;1.42;;;;;;;;;;5006803;28;20287;-59
2023/10/29 09:48:34;;;;;;;1.25;1.17;;;;;;;;;;5005942;28;20705;-59
2023/10/29 09:51:04;;;;;;;1.63;1.52;;;;;;;;;;5001353;28;20312;-58
2023/10/29 09:53:32;;;;;;;1.25;1.25;;;;;;;;;;5003986;28;20293;-58
2023/10/29 09:55:59;;;;;;;3.22;1.20;;;;;;;;;;5003393;28;20208;-58
2023/10/29 09:58:27;;;;;;;1.40;1.30;;;;;;;;;;5005062;28;20279;-59
2023/10/29 10:00:54;;;;;;;3.20;2.63;;;;;;;;;;5003242;28;20335;-64
2023/10/29 10:03:21;;;;;;;1.75;1.65;;;;;;;;;;5005078;28;20221;-59
2023/10/29 10:05:48;;;;;;;4.43;1.17;;;;;;;;;;5004393;28;21061;-58
2023/10/29 10:08:24;;;;;;;1.73;1.23;;;;;;;;;;5005052;28;20462;-60
2023/10/29 10:10:51;;;;;;;1.23;1.23;;;;;;;;;;5004400;28;20213;-59
2023/10/29 10:13:19;;;;;;;1.20;1.15;;;;;;;;;;5003033;28;20224;-62
2023/10/29 10:15:48;;;;;;;0.90;0.90;;;;;;;;;;5004729;28;20201;-60
2023/10/29 10:18:15;;;;;;;1.58;1.48;;;;;;;;;;5002284;28;20221;-59
2023/10/29 10:20:42;;;;;;;2.95;1.63;;;;;;;;;;4991456;28;20339;-60
2023/10/29 10:23:11;;;;;;;2.00;1.30;;;;;;;;;;4996105;28;20217;-59
2023/10/29 10:25:40;;;;;;;1.35;1.20;;;;;;;;;;5002107;28;20554;-60
2023/10/29 10:28:07;;;;;;;2.92;1.77;;;;;;;;;;4999396;28;20701;-63
2023/10/29 10:30:34;;;;;;;1.95;1.20;;;;;;;;;;5002657;28;20216;-59
2023/10/29 10:33:12;;;;;;;1.00;1.00;;;;;;;;;;5003306;28;20197;-60
2023/10/29 10:35:40;;;;;;;4.63;1.45;;;;;;;;;;4995360;28;20688;-59
2023/10/29 10:38:07;;;;;;;1.70;1.60;;;;;;;;;;4999422;28;20378;-59
2023/10/29 10:40:34;;;;;;;1.63;1.60;;;;;;;;;;5004284;28;20235;-60
2023/10/29 10:43:02;;;;;;;2.03;1.17;;;;;;;;;;5004884;28;20232;-60
2023/10/29 10:45:30;;;;;;;1.38;1.30;;;;;;;;;;5004974;28;20220;-60
2023/10/29 10:47:58;;;;;;;1.13;1.00;;;;;;;;;;5004682;28;20201;-59
2023/10/29 10:50:26;;;;;;;0.55;0.55;;;;;;;;;;5003538;28;20209;-60
2023/10/29 10:52:56;;;;;;;0.90;0.90;;;;;;;;;;5003614;28;20213;-60
2023/10/29 10:55:24;;;;;;;4.38;1.90;;;;;;;;;;5001264;28;20227;-63
2023/10/29 10:57:52;;;;;;;1.00;1.00;;;;;;;;;;4999672;28;20720;-60
2023/10/29 11:00:21;;;;;;;2.15;1.55;;;;;;;;;;5003691;28;20212;-60
2023/10/29 11:02:50;;;;;;;1.98;1.10;;;;;;;;;;5004871;28;20215;-59
2023/10/29 11:05:18;;;;;;;1.17;1.17;;;;;;;;;;4995824;28;20209;-60
2023/10/29 11:07:46;;;;;;;1.40;1.40;;;;;;;;;;4999684;28;20209;-60
2023/10/29 11:10:14;;;;;;;0.90;0.90;;;;;;;;;;5002849;28;20209;-61
2023/10/29 11:12:41;;;;;;;0.93;0.93;;;;;;;;;;5003293;28;20209;-61
2023/10/29 11:15:15;;;;;;;2.92;1.08;;;;;;;;;;4999019;28;20642;-60
2023/10/29 11:18:07;;;;;;;1.27;1.25;;;;;;;;;;5004545;28;20743;-60
2023/10/29 11:20:52;;;;;;;1.13;1.13;;;;;;;;;;4982034;28;20209;-60
2023/10/29 11:23:25;;;;;;;1.88;0.93;;;;;;;;;;5003776;28;20216;-61
2023/10/29 11:25:52;;;;;;;2.78;1.25;;;;;;;;;;5002580;28;20213;-60
2023/10/29 11:28:38;;;;;;;1.20;1.10;;;;;;;;;;5002529;28;20212;-61
2023/10/29 11:31:12;;;;;;;1.08;0.95;;;;;;;;;;5002461;28;20212;-59
2023/10/29 11:33:41;;;;;;;5.30;1.85;;;;;;;;;;5004940;28;20939;-59
2023/10/29 11:36:27;;;;;;;1.27;1.10;;;;;;;;;;5005145;28;20249;-59
2023/10/29 11:38:55;;;;;;;1.25;0.77;;;;;;;;;;4998661;28;20217;-61
2023/10/29 11:41:40;;;;;;;1.02;1.02;;;;;;;;;;5003634;28;20631;-59
2023/10/29 11:44:23;;;;;;;0.90;0.90;;;;;;;;;;5004230;28;20299;-59
2023/10/29 11:47:06;;;;;;;1.27;0.90;;;;;;;;;;5006621;28;20208;-58
2023/10/29 11:49:49;;;;;;;2.22;1.13;;;;;;;;;;5006513;28;20216;-59
2023/10/29 11:52:16;;;;;;;3.30;1.20;;;;;;;;;;4995440;28;20314;-59
2023/10/29 11:54:45;;;;;;;3.10;1.25;;;;;;;;;;5005047;28;20204;-59
2023/10/29 11:57:13;;;;;;;1.00;1.00;;;;;;;;;;5006872;28;20236;-59
2023/10/29 11:59:54;;;;;;;0.90;0.90;;;;;;;;;;5007114;28;20205;-59
2023/10/29 12:02:21;;;;;;;2.25;1.00;;;;;;;;;;5004633;28;20216;-59
2023/10/29 12:04:49;;;;;;;0.80;0.80;;;;;;;;;;5009090;28;20213;-59
2023/10/29 12:07:24;;;;;;;0.60;0.60;;;;;;;;;;5006949;28;20237;-60
2023/10/29 12:10:01;;;;;;;0.93;0.90;;;;;;;;;;5009340;28;20216;-60
2023/10/29 12:12:28;;;;;;;3.00;0.80;;;;;;;;;;5007721;28;20677;-59
2023/10/29 12:14:55;;;;;;;1.10;1.00;;;;;;;;;;5008317;28;20218;-60
2023/10/29 12:17:22;;;;;;;0.80;0.80;;;;;;;;;;5007947;28;20232;-60
2023/10/29 12:19:49;;;;;;;1.00;1.00;;;;;;;;;;5009157;28;20212;-60
2023/10/29 12:22:18;;;;;;;1.00;1.00;;;;;;;;;;5009547;28;20216;-60
2023/10/29 12:24:46;;;;;;;1.10;1.10;;;;;;;;;;5003635;28;20575;-60
2023/10/29 12:27:14;;;;;;;1.13;1.13;;;;;;;;;;5005594;28;20643;-62
2023/10/29 12:29:41;;;;;;;1.65;1.27;;;;;;;;;;5008341;28;20267;-60
2023/10/29 12:32:16;;;;;;;1.00;1.00;;;;;;;;;;5008558;28;20267;-60
2023/10/29 12:34:48;;;;;;;1.70;1.60;;;;;;;;;;5005830;28;20246;-60
2023/10/29 12:37:20;;;;;;;1.55;1.55;;;;;;;;;;5002604;28;20731;-60
2023/10/29 12:39:47;;;;;;;1.90;1.80;;;;;;;;;;5007542;28;20236;-60
2023/10/29 12:42:15;;;;;;;2.13;2.03;;;;;;;;;;5008044;28;20236;-60
2023/10/29 12:44:51;;;;;;;1.83;1.73;;;;;;;;;;5005493;28;20224;-61
2023/10/29 12:47:18;;;;;;;2.00;1.23;;;;;;;;;;5007472;28;20692;-61
2023/10/29 12:49:45;;;;;;;1.48;1.42;;;;;;;;;;4998009;28;20210;-60
2023/10/29 12:52:13;;;;;;;1.60;1.33;;;;;;;;;;5008381;28;20216;-60
2023/10/29 12:54:43;;;;;;;1.20;1.20;;;;;;;;;;5008332;28;20209;-60
2023/10/29 12:57:17;;;;;;;1.20;1.20;;;;;;;;;;5007829;28;20237;-60
2023/10/29 12:59:47;;;;;;;1.33;1.33;;;;;;;;;;5008383;28;20211;-60
2023/10/29 13:02:21;;;;;;;1.30;1.20;;;;;;;;;;5008108;28;20219;-60
2023/10/29 13:04:49;;;;;;;0.90;0.90;;;;;;;;;;5008946;28;20216;-60
2023/10/29 13:07:17;;;;;;;2.50;0.60;;;;;;;;;;5007918;28;20281;-62
2023/10/29 13:09:44;;;;;;;1.60;0.80;;;;;;;;;;5008387;28;20217;-60
2023/10/29 13:12:12;;;;;;;0.75;0.75;;;;;;;;;;5008929;28;20799;-60
2023/10/29 13:14:39;;;;;;;1.60;1.58;;;;;;;;;;5011236;28;20207;-60
2023/10/29 13:17:08;;;;;;;0.88;0.88;;;;;;;;;;5005456;28;20236;-60
2023/10/29 13:19:35;;;;;;;0.93;0.90;;;;;;;;;;5007430;28;20228;-58
2023/10/29 13:22:02;;;;;;;0.90;0.90;;;;;;;;;;5008394;28;20289;-63
2023/10/29 13:24:30;;;;;;;1.10;1.10;;;;;;;;;;5007784;28;20213;-61
2023/10/29 13:26:57;;;;;;;1.20;1.10;;;;;;;;;;5000999;28;20232;-60
2023/10/29 13:29:24;;;;;;;1.10;1.10;;;;;;;;;;5007647;28;20251;-62
2023/10/29 13:31:51;;;;;;;1.20;1.10;;;;;;;;;;5007416;28;20777;-60
2023/10/29 13:34:20;;;;;;;1.50;0.90;;;;;;;;;;5007315;28;20209;-61
2023/10/29 13:36:48;;;;;;;0.85;0.82;;;;;;;;;;5006222;28;20221;-61
2023/10/29 13:39:16;;;;;;;1.27;1.27;;;;;;;;;;5001456;28;20216;-62
2023/10/29 13:41:44;;;;;;;1.25;0.98;;;;;;;;;;5006642;28;20232;-61
2023/10/29 13:44:15;;;;;;;1.17;1.13;;;;;;;;;;5007110;28;20581;-60
2023/10/29 13:46:42;;;;;;;1.02;1.02;;;;;;;;;;5004924;28;20224;-61
2023/10/29 13:49:10;;;;;;;0.80;0.80;;;;;;;;;;5004323;28;20228;-61
2023/10/29 13:51:41;;;;;;;1.75;1.17;;;;;;;;;;5003390;28;20263;-61
2023/10/29 13:54:08;;;;;;;1.02;1.02;;;;;;;;;;5006922;28;20212;-61
2023/10/29 13:56:35;;;;;;;2.50;1.45;;;;;;;;;;5002601;28;20200;-61
2023/10/29 13:59:02;;;;;;;11.02;7.47;;;;;;;;;;5007452;28;20209;-61
2023/10/29 14:01:30;;;;;;;17.98;9.20;;;;;;;;;;5006979;28;20568;-61
2023/10/29 14:03:58;;;;;;;58.45;30.52;;;;;;;;;;5007026;28;20212;-61
2023/10/29 14:06:26;;;;;;;2.42;2.00;;;;;;;;;;5004628;28;20702;-61
2023/10/29 14:08:54;;;;;;;1.60;1.50;;;;;;;;;;5000122;28;20289;-61
2023/10/29 14:11:21;;;;;;;1.30;1.30;;;;;;;;;;5004076;28;20638;-61
2023/10/29 14:13:50;;;;;;;3.40;1.10;;;;;;;;;;5004353;28;20209;-61
2023/10/29 14:16:18;;;;;;;0.82;0.80;;;;;;;;;;5007160;28;20236;-61
2023/10/29 14:18:45;;;;;;;3.88;1.52;;;;;;;;;;5003215;28;20335;-61
2023/10/29 14:21:12;;;;;;;1.63;1.27;;;;;;;;;;5003643;28;20214;-60
2023/10/29 14:23:40;;;;;;;0.80;0.80;;;;;;;;;;5003564;28;20205;-61
2023/10/29 14:26:08;;;;;;;0.80;0.80;;;;;;;;;;5001407;28;20208;-61
2023/10/29 14:28:35;;;;;;;0.98;0.98;;;;;;;;;;5006231;28;20201;-61
2023/10/29 14:31:02;;;;;;;0.90;0.90;;;;;;;;;;5004607;28;20259;-61
2023/10/29 14:33:29;;;;;;;1.10;1.10;;;;;;;;;;5007143;28;20244;-60
2023/10/29 14:35:57;;;;;;;0.80;0.80;;;;;;;;;;5006856;28;20200;-61
2023/10/29 14:38:24;;;;;;;1.15;0.98;;;;;;;;;;5006675;28;20252;-65
2023/10/29 14:40:53;;;;;;;1.23;0.70;;;;;;;;;;5007467;28;20213;-59
2023/10/29 14:43:21;;;;;;;1.02;1.02;;;;;;;;;;5004006;28;20585;-60
2023/10/29 14:45:49;;;;;;;0.90;0.90;;;;;;;;;;5001472;28;20704;-62
2023/10/29 14:48:16;;;;;;;0.85;0.85;;;;;;;;;;5001414;28;20209;-61